能登空港

2023/07/19

海の日お舟の日 七尾港他 2023/7/16 sun

夏の日の出は、早い。歳を重ねて起きる時間も早くなってしまった。眼がさめたら、モタモタしてるのももったいないので、出撃です。本日の計画は、福井。

RJNT 152105Z 19009KT 9999 FEW040 SCT060 BKN100 29/22 Q1009 RMK 1SC040 3SC060 5AC100 A2981

20230716_0nanao_00ddh182

早朝、「いせ」を拝んでから

RJNT 152300Z 19009KT 9999 FEW030 SCT060 BKN080 30/23 Q1010

20230716_0nanao_01ams4301

七尾港矢田新第一埠頭

20230716_0nanao_02pc125

ジャスト、PC126「はまゆき」が出航です。

20230716_0nanao_03pc125

ははーん、埠頭移動か

20230716_0nanao_04pc125

一旦沖に出て

20230716_0nanao_05pc125

回頭して戻ってきます。

20230716_0nanao_06pc125

展示のため矢田新第一埠頭に接岸ですね。

20230716_0nanao_07pc125

横移動で

20230716_0nanao_08pc125

接岸

20230716_0nanao_09pc125

本日の準備が始まりました。

20230716_0nanao_10nno

矢田新第一埠頭は、新岸壁が完成するまで、結構自由に出入りできたのですが、今は時間まで完全シャットアウト。んー、余計な事故起こすなよ。

20230716_0nanao_11ams4301

仕方がないので、管理事務所前から

20230716_0nanao_12ams4301

時間です。

###

RJNW 152300Z 23012KT 9999 FEW030 SCT070 BKN/// 28/23 Q1011

20230716_0nanao_13pc125

AMS4301「ひうち」は、満艦飾

20230716_0nanao_14pc125

20230716_0nanao_15ams4301

一般公開は10時から

実は昨日、ちょっと気になる情報を聞いたので、それを確認に転進します。

のと里山海道を進んで能登空港も通過、地震頻発地域に入りました。

RJNW 160000Z 23016KT CAVOK 29/23 Q1011

20230716_1akasaki_20akasaki

岬めぐり じゃなくって

20230716_1akasaki_21akasaki

能登赤埼燈台

20230716_1akasaki_22akasaki

赤崎海岸に来ました。

20230716_1akasaki_23plh01

沖合に白い船 いましたPLH01「そうや」

20230716_1akasaki_24plh01

北海道の第一管区海上保安本部釧路海上保安部所属 海保の最古参巡視船で砕氷船がなぜここに・・

20230716_1akasaki_25ja141a

ANA747 RJTT-RJNW JA141A A321-272N

丁度能登空港RW25のファイナルの位置でした。

20230716_1akasaki_26plh01

深夜に到着して、投錨している様子です。5年前小樽で乗船したぶり。

平成30年度第一管区海上保安本部総合訓練 小樽港 2018/7/21 sat

20230716_1akasaki_27plh01

目的達成して、位置関係を確認に松波漁港に

20230716_1akasaki_28plh01

ん、水出てる

20230716_1akasaki_29plh01

きゃー脱錨

20230716_1akasaki_30plh01

あら向きを変えだした

20230716_1akasaki_31plh01

出航だ 急いで赤崎に戻ります。

20230716_1akasaki_32plh01

涙うるうる

RJNW 160100Z 24013KT 9999 FEW030 SCT070 29/23 Q1012

20230716_1akasaki_33plh01

波を立てて、カツケー

20230716_1akasaki_34plh01

2,3年後に退役と聞いている。最後までがんばってください。

もう、今日はこれで満腹。

せっかくなので、七尾港に戻って、見学をします。

RJNW 160200Z 24015G27KT 9999 FEW040 SCT070 30/23 Q1012

20230716_2nanao_40pc125

ここしばらく豪雨と洪水の話題ばかりで、久しぶりに青い海を見たような。

20230716_2nanao_41pc125

まず「はまゆき」から

20230716_2nanao_42pc125

うみまる君は立看

20230716_2nanao_43pc125

兵装は13mm多銃身機銃

20230716_2nanao_44pc125

ブリッジはコンパクト

20230716_2nanao_45ams4301

「ひうち」を見る

20230716_2nanao_46pc125

4m型複合艇

20230716_2nanao_47pc125

20230716_2nanao_48pc125

20230716_2nanao_49ams4301

続いて「ひうち」 満艦飾が美しい

20230716_2nanao_51ams4301

20230716_2nanao_52ams4301

「ひうち」から「はまゆき」

20230716_2nanao_53ams4301

艦長は三佐職

20230716_2nanao_54ams4301

活動を写真パネルで展示

20230716_2nanao_55ams4301

救護室も公開

RJNW 160300Z 24017KT 9999 FEW030 SCT070 30/23 Q1012

20230716_2nanao_55ams4301x

後部の作業甲板には消火装備とロープワークを行っていました。

20230716_2nanao_56ams4301

満艦飾のてっぺんは、自衛艦旗だそうです。

20230716_2nanao_57ams4301

もうお昼休みに入るので、そそくさと退艦

20230716_2nanao_58ams4301

地本ブースに寄っていたら、なんと女性艦長さん。一枚頂きました。笑顔が眩しい。

20230716_2nanao_50ams4301

20230716_2nanao_60ja

地本の展示は、第23警戒隊のLAVとトラック

20230716_2nanao_61pc125

20230716_2nanao_62pc125

当初予定の福井港「せとぎり」の見学は、取りやめて帰投することに。2兎を追えたので、3兎を追っちゃいけないかな。

RJNT 160400Z 29011KT 9999 VCSH FEW030 FEW035TCU 35/23 Q1010

20230716_2nanao_63ddh182

一般の方は、海でお遊びですね。涼しそう。

いつもの場所は、鉄の方でいっぱいでした。パス。

 

 

| | コメント (0)

2023/06/03

輪島市民まつり2023 輪島市 2023/6/3 sat

毎年6月第一週の週末は、輪島市民まつり。メインは花火大会ですが、いろんなイベントが開催されます。ここは、小生目線でのお祭りの様子です。

20230603_0wajima_100nipponmaru

今年も、「にっぽん丸寄港」。昨晩は金沢を出て早朝に入港です。

20230603_0wajima_101nipponmaru

時刻は6時過ぎ。船に動きが。

20230603_0wajima_102nipponmaru

タグは七尾の「さど丸」お迎えに出港。

20230603_0wajima_103nipponmaru

地元漁船が大漁旗を上げて歓迎

20230603_0wajima_104nipponmaru

マリンタウン岸壁のここに着岸

20230603_0wajima_105nipponmaru

トモの舫が引かれました。

20230603_0wajima_106nipponmaru

自力で入港です。

20230603_0wajima_107nipponmaru

岸壁には七尾海陸運送の作業員が待機

20230603_0wajima_108nipponmaru

ここから舳先を東に向けて、スターボード側で接岸です。

20230603_0wajima_109nipponmaru

さど丸がゆっくりトモを押します。

20230603_0wajima_110nipponmaru

にっぽん丸もスラスターを使って岸壁に近づいてきます。

20230603_0wajima_111nipponmaru

投錨

20230603_0wajima_112gyosen

お迎えの漁船がゴール

20230603_0wajima_113nipponmaru

舫作業が続きます。

20230603_0wajima_114nipponmaru

20230603_0wajima_115nipponmaru

ステージでは歓迎行事が行われます。まだ7時前、早いねぇ。

20230603_0wajima_116nipponmaru

地元消防も接岸模様を見学に来てました。

20230603_0wajima_117nipponmaru

着岸作業終了。

20230603_0wajima_118sadomaru

さど丸が離れます。出航の夜まで待機ですね。長ーい。

20230603_0wajima_119sadomaru

能登へようこそ

20230603_0wajima_120sadomaru

小生的まつりその1 にっぽん丸寄港でした。

20230603_0wajima_121ja

7時を廻って、岐阜の地対空誘導弾が到着

20230603_0wajima_122ja

小松から基地防空隊の短SAMが続きます。

20230603_0wajima_123ja

きりこ会館横の広場で「自衛隊車両展示」

20230603_0wajima_124ja

この展開作業を見るのが、また楽しみ。

20230603_0wajima_125ja

トレーラーヘッド分離

20230603_0wajima_126ja

基地防空用地対空誘導弾

20230603_0wajima_127ja

ずーと雲がかかっていた高洲山のレーダーが見えました。最近は、PAC3CRIとMSEの搭載で良く見ます。

20230603_0wajima_128ja

展開作業終了。レーダーに連動してランチャーが動きます。

RJNW 022300Z 30006G16KT 260V020 9999 VCSH FEW010 BKN015 18/16 Q1003

20230603_0wajima_129ja

今年春に中部高射群として統合。第13高射隊(岐阜)が来ています。

###

 

20230603_0wajima_130ja

20230603_0wajima_131ja

20230603_0wajima_132jg

地本の「としぼう」は、待機中

20230603_0wajima_133nipponmaru

20230603_0wajima_134nipponmaru

20230603_0wajima_135nipponmaru

これにてマリンタウンを離脱

20230603_0wajima_136nipponmaru

RJNW 030000Z 32007KT 260V060 9999 FEW010 BKN020 18/14 Q1004

本日第3ポイント 「能登空港」に向かいます。

20230603_1rjnw_200jaa

なにやら遠くで犬の鳴き声が喧しいのですが・・・ バードスウィープに車がスピーカーで流しているのでした。

###

 

20230603_1rjnw_201ja82an

20230603_1rjnw_202ja82an

ANA747 RJTT-RJNW JA82AN B737-881

20230603_1rjnw_203ja82an

RJNW 030100Z 32005KT 270V020 9999 FEW015 SCT020 17/13 Q1004

20230603_1rjnw_204ja82an

20230603_1rjnw_205ja82an

20230603_1rjnw_206ja82an

20230603_1rjnw_207ja82an

20230603_1rjnw_208ja82an

ANA748 RJNW-RJTT JA82AN B737-881

20230603_1rjnw_209ja82an

特に変わりはなかった能登空港でした。

20230603_1rjnw_210hibari

場内では、ハリアーさんの縄張り争いが、姦しい。

20230603_1rjnw_211hibari

ホバリング中

20230603_1rjnw_212ja2435

JA2435 SF25 学園機がクロカンへ

RJNW 030200Z VRB04KT 9999 FEW015 SCT025 19/15 Q1004

20230603_2wajima_300nipponmaru

本日の第4ポイント 「自衛隊航空機飛行展示」

RJNW 030300Z VRB03KT 9999 FEW020 SCT025 19/13 Q1004

20230603_2wajima_301h784603

まずは小松救難隊の救難展示

20230603_2wajima_302h784603

78-4603 UH-60J KOMATSU-ARS

20230603_2wajima_303h784603

先日美保で見た機体と同じ。残念ながら展示場所は、ここからは死角でした。

20230603_2wajima_304h784603

展示終了して、垂直離脱

20230603_2wajima_305h784603

また海上での救難展示を披露してくれないかなぁ と、願望

20230603_2wajima_306f128928

続いて岐阜から飛行開発実験団

20230603_2wajima_307f128928

F-15とF-2

20230603_2wajima_308f638101

こう見るとタイト

20230603_2wajima_309f128928

沖合でギアダウン

20230603_2wajima_310f128928

20230603_2wajima_311f128928

20230603_2wajima_312f128928

20230603_2wajima_313f128928

12-8928 F-15J ADTW

20230603_2wajima_314f128928

63-8101 F-2B ADTW

20230603_2wajima_315f128928

ラストラン

###

 

20230603_2wajima_316masucat

これにて小生的「輪島市民まつり」は終了。

 

| | コメント (0)

2022/07/22

能登空港消火救難総合訓練 能登空港 2022/7/21 thu

前回記事で、能登空港エプロンに航空学園のYSが???と書きましたが、空港ビルに行ってみると・・

20220721_rjnw_200fdp

なぬー、そんなことするの・・ 本来は、帰路につく予定が、ここで粘ることに。

RJNW 210300Z 11005KT 080V170 9999 FEW010 SCT020 BKN150 27/22 Q1007

20220721_rjnw_201ja8777

気温はそんなに高くないですが、湿度が高くて、息苦しい。うましかは、高いとこがお好き。

RJNW 210400Z 11006KT 070V150 9999 FEW008 SCT025 BKN130 26/22 Q1006

20220721_rjnw_202fdp

13時をまわって、空港用医療作業車が引き出され、支援機材の準備。

20220721_rjnw_203fdp

地元消防は、奥能登広域圏事務組合消防本部。まず輪島消防署から救助工作車到着。

20220721_rjnw_204fdp

会場準備は、ほぼ終わったようです。本物の事故があれば、事故があってから準備するのだから、なかなか大変な話です。

20220721_rjnw_205fdp

地元消防が揃いました。奥能登指令、輪島救助、能登ポンプ、穴水救急、珠洲救急、奥能登資機。

RJNW 210500Z 11007KT 9999 -RA FEW010 SCT030 OVC120 24/22 Q1006

20220721_rjnw_206ja8777

学園の電源車が接続されて、タラップの展張。これも授業の一環かな。

訓練想定は、乱気流で機内の負傷者が出た便が、能登空港に緊急着陸。着陸時、乱気流で着陸に失敗、滑走路真ん中ぐらいに擱座した。そんな風に聞こえた。

20220721_rjnw_207fdp

空港消防車が、エマー機の着陸に備えて配備につきます。

20220721_rjnw_208fdp

この時間帯、滑走路もエプロンもクローズです。

20220721_rjnw_209fdp

放水開始

20220721_rjnw_210fdp

折からの南風で、我々の所にも水しぶきが飛んできます。

20220721_rjnw_211fdp

20220721_rjnw_212fdp

地元消防に事故が通知され出動

###1

20220721_rjnw_213fdp

ここまでの状態になるには、事故が発生して30分はかかるのかな。

20220721_rjnw_214fdp

放水を終えた空港消防車は、誘導路脇にある地下水槽のところで、給水。これは初めて見た。

20220721_rjnw_215fdp

給水に気を取られていたら、医療関係車両がこんなに参集してた。ほとんどがDMATなので、これらも参集には時間がかかるね。地元医療機関だけで、どれだけ出来るのか?

20220721_rjnw_216fdp

機内に自力避難できない旅客が取り残されている模様

20220721_rjnw_217fdp

消防隊が救助に入ります。

20220721_rjnw_218fdp

給水が終わった空港消防車が再度配置につきます。

20220721_rjnw_219fdp

シナリオでは、航空機から出火で、地元消防が消火に入ります。これも訓練だからな。

###2

20220721_rjnw_220fdp

訓練だからと割り切って見てますが、水だけで消火できるのだろうか?

RJNW 210600Z 11006KT 9999 FEW008 SCT010 OVC100 25/22 Q1005

20220721_rjnw_221fdp

トリアージに随分時間がかかっています。と感じる。でも実際は、こんなものなのかな。

20220721_rjnw_222fdp

重傷者から医療機関搬送が始まりました。

20220721_rjnw_223fdp

放水を終えて、再給水。

後は、救急車の動きが主で、地元消防車はすぐ離脱して、現場復帰して行きました。小生の時間の関係から訓練は最後までみないで、この辺で離脱、帰路へ。

偶然ですが、イイものを見せてもらいました。

 

| | コメント (0)

2022/07/21

能登岬めぐり 珠洲市・能登空港 2022/7/21 thu

毎年7月20日、21日は、珠洲市飯田で、「飯田町燈籠山祭り」が行われます。今年は3年振りに曳山が運行。これにあわせて飯田港では、これも恒例の艦艇公開。早朝から、ちょっとそれを見に出かけました。

20220721_0suzuiida_00matsuri

神さまが夕涼みにお出ましになる祭りですが、朝涼みです。

20220721_0suzuiida_00zmatsuri

こんな舞台も設えらています。

20220721_0suzuiida_01pg828

さて、艦艇広報ですが、昨日からミサイル艇が来ています。

20220721_0suzuiida_02pg828

今年の石川地本のイベントは、応募制

RJNW 202300Z 11003KT 9999 FEW008 SCT150 BKN160 24/22 Q1008

20220721_0suzuiida_03pg828

では8時の儀式を

###

 

20220721_0suzuiida_04pg828

ぎょ、対艦ミサイルが2基しかない。ウクライナへ供出したか・・

20220721_0suzuiida_05pg828

20220721_0suzuiida_06pg828

20220721_0suzuiida_07pg828

20220721_0suzuiida_08pg828

PG828「うみたか」舞鶴警備隊第2ミサイル艇隊

20220721_0suzuiida_09flag

漁船も日の丸に大漁旗

20220721_0suzuiida_10pg828

見学はせず、これにて離脱。自衛艦旗掲揚を見に来ただけでした。

20220721_1noto_11mitsuke

帰路、観光地をちょい覗き

20220721_1noto_12mitsuke

先日の地震で、両側の崖が少し崩れたようです。

20220721_1noto_13ika

能登町道の駅の「イカキング」

RJNW 210000Z VRB02KT 9999 FEW008 SCT015 BKN150 25/22 Q1008

20220721_1noto_14cl101

小木港に廻って巡視艇。大型イカ釣り船は出漁中。

20220721_1noto_15cl101

CL101「おぎかぜ」能登海上保安署

20220721_rjnw_116ja8777

ちょっと道草のし過ぎで、到着に間に合いませんでした。

20220721_rjnw_117ja8777

学園のYSがエプロンに???

20220721_rjnw_118ja219a

ANA747 RJTT-RJNW JA219A A320-271N

20220721_rjnw_119sumo

ターミナルの三兄弟は、健在でした。場所はどうかな???

RJNW 210100Z 12004KT 080V170 9999 -SHRA FEW008 SCT010 BKN020 25/22 Q1007

20220721_rjnw_120ja219a

よし

20220721_rjnw_121ja219a

20220721_rjnw_122ja219a

20220721_rjnw_123ja219a

この辺も松が伸び放題で、障害となってきています。

20220721_rjnw_124ja219a

ANA748 RJNW-RJTT JA219A A320-271N

20220721_rjnw_125ja219a

時より雨が落ちる、蒸し暑い能登空港でした。

 

| | コメント (0)

2022/06/03

予行 能登空港・輪島市 2022/6/2 thu

コロナ禍も3年目、ワクチン接種も3回目が終わり、そろそろ行動制限も緩めようという世の空気。そんな中大々的に復活する「輪島市民まつり」。2020年は中止、21年は人の集まるイベントは中止となっていた。となると、自衛隊機のフライバイが復活するので、その予行情報をもとに行って来た。

RJNW 011000Z 02001KT CAVOK 16/13 Q1006

20220602_0rjnw_00rjnw

能登空港に寄るのは、昨年の秋以来。

20220602_0rjnw_01rjnw

もう森状態の進入路

20220602_0rjnw_02rjnw

滑走路点検中

RJNW 012300Z 23008KT CAVOK 22/13 Q1007

20220602_0rjnw_03fav

あさんぽ

RJNW 020000Z 24016KT CAVOK 23/12 Q1008

20220602_0rjnw_04ja77an

朝の定期便

20220602_0rjnw_05ja77an

ANA747 RJTT-RJNW JA77AN B737-881

20220602_0rjnw_06ja77an

着陸帯の草も伸びて、もう脚が見えない

20220602_0rjnw_07ja77an

長閑です。

RJNW 020100Z 24013KT CAVOK 23/12 Q1007

20220602_0rjnw_08ja77an

ターミナル側に移動

20220602_0rjnw_09ja77an

20220602_0rjnw_10ja77an

20220602_0rjnw_11ja77an

20220602_0rjnw_12ja77an

20220602_0rjnw_13ja77an

20220602_0rjnw_14ja77an

ANA748 RJNW-RJTT JA77AN B737-881

20220602_0rjnw_15ja77an

特に変わったことのない、能登空港でした。学園フライトはお休みの模様。

RJNW 020300Z 23016KT 9999 FEW040 24/15 Q1007

20220602_1wajima_16nanatsushima

輪島市街へ出て、七ツ島

20220602_1wajima_17mushi

気が付けば、足元にスズメバチがいたり、腕の上を毛虫が歩いていたり、昆虫に囲まれています。

20220602_1wajima_18f15

輪島まつりへの展示飛行の予行です。

20220602_1wajima_19f15

昨年は、まつりの展示は無くて、分屯基地記念式典でのフライトでした。

20220602_1wajima_20f328942

バイバイキン

20220602_1wajima_21f328942

会場のマリンタウンに合わせた航過位置

20220602_1wajima_22f328942

20220602_1wajima_23t4

随伴は、T-4でした。

20220602_1wajima_24f328942

外周も、そんなに離れてなくて、なんとか押さえれる距離。

20220602_1wajima_25t4

20220602_1wajima_26f328942

2航過目

20220602_1wajima_27f328942

32-8942 と確認

20220602_1wajima_28t4

F-15を見ているとT-4は疎かに

###

 

20220602_1wajima_29f328942

20220602_1wajima_30f328942

3回航過で下見終了、小松経由で岐阜に帰投です。

20220602_1wajima_31wajimasb

いつかは登ってみたい山

本番は、6月4日(土)です。

 

| | コメント (0)

2021/10/10

草との戦い 能登空港 2021/10/9 sat

金沢港を早々に切り上げて、石川県人でもないのに、のと里山海道を北上していきます。

RJNW 090000Z 06009KT 010V090 9999 FEW010 SCT180 BKN/// 20/18 Q1026

20211009_rjnw_00ja77an

定期便の到着になんとか間に合いました。

20211009_rjnw_01ja77an

RNAV RWY07 で来てくれたおかげです。

20211009_rjnw_02ja77an

ANA747 RJTT-RJNW JA77AN B737-881

20211009_rjnw_03ja77an

ターミナル対岸の南側ですが、セイタカアワダチソウとすすきの森になっていて、進出するのに一苦労。

RJNW 090000Z 06009KT 010V090 9999 FEW010 SCT180 BKN/// 20/18 Q1026

20211009_rjnw_04jg73492

風の噂がやって来ました。

20211009_rjnw_05jg73492

ほんとに久しぶりに見る、アタッカーさん

20211009_rjnw_06jg73492

ここで、これが見れるとわ ちょっと幸せ

20211009_rjnw_07jg73492

JG73492 AH-1S VATH (明野)

20211009_rjnw_08jg41848

つづいて、バタバタ音がたまらないハンターさん

20211009_rjnw_09jg41848

ここは、能登空港です。

20211009_rjnw_10jg41848

JG41848 UH-1J MH (八尾)

20211009_rjnw_11jg41848

いずれも学園エプロンに入りました。

20211009_rjnw_12jg41848

なかなかお似合いです。

20211009_rjnw_13ja77an

表側に転戦してみます。

20211009_rjnw_14jg73492

学園エプロンで展示準備中

20211009_rjnw_15nte

赤い能登VOR/DME(NTE)

20211009_rjnw_16ja77an

学園側からエプロンを見ます。

20211009_rjnw_17ja77an

そこそこ観光客が来てるようです。

20211009_rjnw_18ja77an

20211009_rjnw_19ja77an

20211009_rjnw_20ja77an

ANA748 RJNW-RJTT JA77AN B737-881

20211009_rjnw_21ja77an

一般公開はありません。学園での募集広報の模様。

RJNW 090200Z 07008KT 9999 FEW015 SCT020 BKN/// 21/18 Q1026

20211009_rjnw_22ja2435

富山に行っていた、モグラさんが帰ってきた。

20211009_rjnw_23ja2435

JA2435 SF-25

RJNW 090300Z 07012KT 9999 FEW015 SCT020 BKN170 22/18 Q1025

20211009_rjnw_24endo

噂に聞いていた、三力士像

20211009_rjnw_25endo

元からあった遠藤関の顔出し立看は、二階にあります。

20211009_rjnw_26ys

学園のYSには動きはなさそう。

RJNW 090400Z 08008KT 050V110 9999 FEW015 SCT020 BKN170 23/18 Q1025

20211009_rjnw_27ja2435

JA2435 午後の学園フライトが開始されました。

RJNW 090500Z 07007KT 030V110 9999 FEW015 SCT020 BKN/// 23/18 Q1024

20211009_rjnw_28ja2435

滑走路脇のポイントの啓開を続けていますが、大変。せめてMRJ飛んでた頃に戻ってくれー。

20211009_rjnw_29jg41848

お帰りのお時間です。

20211009_rjnw_30jg41848

ハンターさんから

20211009_rjnw_31jg41848

JG41848

20211009_rjnw_32jg41848

20211009_rjnw_33jg41848

20211009_rjnw_34jg41848

また、どこかでお逢いしましょう

### whitewing681さんの動画 ###

20211009_rjnw_35jg73492

引き続きアタッカーさん

20211009_rjnw_36jg73492

学園生に離陸が見やすい位置まで、バックトラック

20211009_rjnw_37jg73492

20211009_rjnw_38jg73492

20211009_rjnw_39jg73492

JG73492

20211009_rjnw_40jg73492

また、どこかでお逢いしましょう ツー

### whitewing681さんの動画 ###

 

今日は午後の定期便もありますが、早目帰投。

 

| | コメント (0)

2021/07/03

輪島分屯基地開庁65周年記念行事への道 輪島市・能登空港・富山空港他 2021/7/3 sat

輪島分屯基地が開庁65周年の切り年。コロナ禍が続いている中では、オープンなお祭りとするわけにはいきませんが、今年は、展示飛行があるとのことで、能登までドライブ。

RJNW 022300Z 05004KT 010V100 9999 FEW005 SCT007 BKN/// 25/22 Q1010

【能登空港】

20210703_0rjnw_00ja777m

まずは、能登空港チェック

20210703_0rjnw_01ja777m

昨日、午後にIFRの訓練をしていた7Mさんがお泊り。

20210703_0rjnw_02ja777m

JA777M PA-46-350P

20210703_0rjnw_03rjnw

本日は、定期便がないの

20210703_0rjnw_04endou

FIXにもなっている遠藤関

20210703_0rjnw_05ja777m

10時過ぎに、IFRで出発して行かれました。

【能登町】

20210703_1noto_06ikaking

巷で話題の、イカの駅寄ってみました。

RJNW 030000Z 05005KT 010V090 9999 FEW007 BKN/// 26/21 Q1010

20210703_1noto_07ikaking

なかなか、ゲテモノ

20210703_1noto_08ikaking

お名前は、「イカキング」様

20210703_1noto_09cl101

能登海上保安署 CL101「おぎかぜ」

RJNW 030100Z 03005KT 270V090 9999 FEW020 BKN/// 27/21 Q1010

20210703_2wajima_10senmaida

道すがら、「千枚田」 なんか、もこもこの草

RJNW 030300Z 28003KT 160V330 9999 FEW015TCU SCT030 BKN/// 26/21 Q1010

【輪島】

20210703_2wajima_11wajima

ところどころ青空が見えますが、低い雲が占めています。

先に来た、小松の15は、音は聞こえましたが、雲下に降りれず、キャンセル。

20210703_2wajima_12f838544

飛実のF2さんは、低空に降りて天候偵察

20210703_2wajima_13f838544

83-8544 F-2A / 12-8928 F15J ADTW S01/02

20210703_2wajima_14f838544

分屯基地直上を通過して、ブレイク

20210703_2wajima_15f838544

20210703_2wajima_16f128928

###

 

3回目の航過は、トレイル

20210703_2wajima_17f838544

20210703_2wajima_18f838544

ポンコツカメラで、ピントが合わない

20210703_2wajima_19f128928

なんとしても展示してくれた飛実さんに、感謝

20210703_2wajima_20f128928

雲間に消えて、高度を取ってから岐阜に帰投されました。ご支援ありがとうございました。

RJNW 030400Z VRB04KT 9999 FEW015 SCT020 FEW020TCU BKN/// 26/21 Q1010

【七尾港】

20210703_3nanao_21pc126

七尾海上保安部 PC126「はまゆき」

帰路、能越道で県境を越えたあたりで、入感。なにか富山にIFRで降りてくる。で、ちょっと寄り道。

RJNT 020600Z 36006KT 9999 FEW020 BKN070 31/21 Q1006

【富山空港】

20210703_4rjnt_22ja011t

ローカルトラフィックでT/Gをやった模様

20210703_4rjnt_23ja011t

一旦終わりみたいです。

20210703_4rjnt_24ja011t

JA011T SR22

小一時間休憩の後、帰っていかれました。

 

| | コメント (0)

2021/06/17

Note 能登空港 2021/6/17 thu

RJNW 162300Z VRB01KT 9999 FEW008 SCT012 BKN015 19/17 Q1007

20210617_rjnw_00n462al

今にも雨が降りそうです。

RJNW 170000Z 21003KT 180V240 9999 FEW003 SCT010 BKN015 20/18 Q1007

20210617_rjnw_01n462al

管理事務所のランウェイチェック

20210617_rjnw_02ja05an

草、ぼうぼう

20210617_rjnw_03ja05an

ANA747 RJTT-RJNW JA05AN B737-781

20210617_rjnw_04ja05an

軽く流して、折り返してきます。

RJNW 170100Z VRB03KT 9999 FEW003 SCT010 BKN015 21/18 Q1007

20210617_rjnw_05noto

ふるさとタクシーが公共交通機関

20210617_rjnw_06ja05an

ターミナル内では、売店で使えるクーポンを配布中。

20210617_rjnw_07ja05an

退役記念デカール付き

20210617_rjnw_08notodon

能登丼まつり

20210617_rjnw_09soujiji

門前の總持寺は、開創七百年。鎌倉時代の末、後醍醐天皇か。 

20210617_rjnw_10ja05an

20210617_rjnw_11ja05an

最近の日常

20210617_rjnw_12ja05an

また、どこかで逢えるかも

20210617_rjnw_13ja05an

お客様は小学校一クラスくらい

20210617_rjnw_14ja05an

時代は廻るよね

20210617_rjnw_15ja05an

20210617_rjnw_16ja05an

ANA748 RJNW-RJTT JA05AN B737-781

20210617_rjnw_17ja05an

20210617_rjnw_18ja05an

雲中に

RJNW 170200Z 30003KT 250V010 9999 FEW003 SCT010 BKN015 21/18 Q1006

20210617_rjnw_19ja3829

クラスターの出ていた学園は、操縦訓練が再開されてるみたい。

20210617_rjnw_20ja3829

JA3829 PA-28-161

20210617_rjnw_21hareyar

ハリアーさんに監視されてます。能登空港は、猛禽類が少ないようだ。

20210617_rjnw_22ja3829

JA3829 T/G

20210617_rjnw_23ja3829

そのうち、富山にもいらっしゃーい。

全日空が運航するB737-700型は今月で退役するとのこと。今日が、能登空港最後の日となるそうな。

もう一機の JA06AN は、鳥取空港でラストデイに記念撮影会も、あるそうだ。

山形でミサゴ見てみたい

 

 

| | コメント (0)

2021/04/24

春山 能登空港 2021/4/24 sat

春になーると思い出す、はるかな能登、遠い空♪

実に2年ぶりの訪問です。特に目的があった訳でもないですが、現地確認です。

RJNW 240000Z VRB03KT 9999 FEW025 BKN/// 13/06 Q1021

20210424_rjnw_00jaa

学園の11さん達は、全機並んでいます。

20210424_rjnw_01ja06an

能登も定期便は、朝の1往復だけ。

20210424_rjnw_02ja06an

VOR/DME前は、松が伸びて、もうポイントとしては厳しい。

20210424_rjnw_03ja06an

ANA747 RJTT-RJNW JA06AN B737-781

RJNW 240100Z VRB04KT 9999 FEW025 BKN/// 16/05 Q1021

20210424_rjnw_04ja06an

20210424_rjnw_05ja2435

JA2435 SF-25

学園さんは、朝から飛行訓練が続いています。

20210424_rjnw_06ja06an

見晴らし台に移動しました。

20210424_rjnw_07ja06an

20210424_rjnw_08ja06an

20210424_rjnw_09ja06an

ANA748 RJNW-RJTT JA06AN B737-781

20210424_rjnw_10ja06an

この時間は、富山の316の離陸と被ります。

RJNW 240200Z 20007KT 160V250 9999 FEW030 BKN/// 17/08 Q1020

20210424_rjnw_11ja2435

JA2435

定期便の間、着陸して訓練生交代、また飛んでトレーニングが続きます。

お昼過ぎまで、のんびりしてましたが、今日はお客さん無。

 

| | コメント (0)

2019/05/05

春チャーター 能登空港 2019/5/4 sat

朝の海王埠頭で「ひうち」の課業始めを見てから、能登空港に転戦。

RJNW 040000Z 07009KT 9999 FEW020 17/05 Q1020

20190504_rjnw_00ja8400

やっぱり間に合いませんでした。RW07のファイナルで頭上を通過していきました。

20190504_rjnw_01ja2435

学園はGWも操縦訓練

RJNW 040100Z 11007KT 060V160 CAVOK 18/07 Q1020

20190504_rjnw_02n462al

エアムラボのYSは、完全な置物。

20190504_rjnw_03ja2435

JA2435 SF-25C

20190504_rjnw_04ja8400

たくさんのお見送りに送られてプッシュバック

20190504_rjnw_05ja25mk

おや、モグラ

20190504_rjnw_06ja25mk

JA25MK SF-25

20190504_rjnw_08ja8400

おいおい、何処行くノー

20190504_rjnw_09ja8400

20190504_rjnw_10ja8400

ANA748 RJNW-RJTT JA8400 A320-211

20190504_rjnw_11ja8400

能登はいかがでしたか

RJNW 040200Z 12008KT 050V170 9999 FEW025 18/07 Q1020

20190504_rjnw_12b18610

恒例、ダイナの春チャーター

20190504_rjnw_13b18610

この春は、4/30,5/4,5/8,5/12の予定

20190504_rjnw_14b18610

CAL7592 RCTP-RJNW B-18610 B737-809

20190504_rjnw_15b18610

歓迎の小旗に迎えられて

20190504_rjnw_16b18610

春の北陸を楽しんでください。

20190504_rjnw_17ja25mk

モグラさん、栃木までお帰りぃ

20190504_rjnw_18ja2435

午後も学園は操訓

20190504_rjnw_19ja25mk

JA25MK

20190504_rjnw_20bil

現在、搭乗待合室は、イミグレ中

20190504_rjnw_21bil

ターミナル前の広場では、のとキリシマツツジフェスティバル開催中

20190504_rjnw_22b18610

20190504_rjnw_23arsr

20190504_rjnw_24bil

青天白日満地紅旗が揺れます

RJNW 040200Z 12008KT 050V170 9999 FEW025 18/07 Q1020

20190504_rjnw_25b18610

準備が整って、プッシュバック

20190504_rjnw_26b18610

エンジン・スタート

20190504_rjnw_27b18610

RW07から

20190504_rjnw_28b18610

CAL7593 RJNW-RCTP B-18610 B737-809

20190504_rjnw_29b18610

URUSI ONE DEPARTURE を上昇していきます。

 

| | コメント (0)

より以前の記事一覧

その他のカテゴリー

BI Boading record aircraft Boading record ship FlightTracking lighthouse NAVAIDS NAVY RJNT LOG SKY MASSAGE US NAVY USMC うみ おか そら てつ アクシデント エアロック チーム室屋 ヘリポート 三沢飛行場 上五島空港 下地島空港 下総飛行場 与論空港 与那国空港 中標津空港 中部国際空港 久米島空港 五島福江空港 仙台空港 伊江島空港 但馬空港 佐賀空港 入間飛行場 八尾空港 八戸飛行場 出雲空港 函館空港 利尻空港 北九州空港 北大東空港 十勝飛行場 千歳飛行場 南大東空港 博物館 厚木飛行場 名古屋飛行場 喜界空港 嘉手納飛行場 場外 壱岐空港 多良間空港 大分空港 大村飛行場 大湊飛行場 大阪国際空港 大館能代空港 天草空港 奄美空港 奥尻空港 宇部山口空港 宇都宮飛行場 宮古空港 宮崎空港 富山空港 対馬空港 小松島飛行場 小松飛行場 屋久島空港 山形空港 岐阜飛行場 岡南飛行場 岡山空港 岩国飛行場 帯広空港 広島空港 広島西飛行場 庄内空港 徳之島空港 徳島飛行場 慶良間空港 成田国際空港 新島空港 新潟空港 新田原飛行場 旭川空港 旭川飛行場 明野飛行場 普天間飛行場 木更津飛行場 札幌飛行場 東京国際空港 松山空港 松島飛行場 松本空港 枕崎飛行場 横田飛行場 沖永良部空港 波照間空港 浜松飛行場 海上保安庁 海上自衛隊 海外 熊本空港 百里飛行場 相馬原飛行場 石垣空港 石見空港 礼文空港 神戸空港 神津島空港 福井空港 福岡空港 福島空港 秋田空港 稚内空港 種子島空港 空撮 立川飛行場 竜ヶ崎飛行場 築城飛行場 粟国空港 美保飛行場 能登空港 舞鶴飛行場 航空自衛隊 芦屋飛行場 花巻空港 調布飛行場 警務消防 那覇空港 釧路空港 長崎空港 関西国際空港 陸上自衛隊 隠岐空港 霞ヶ浦飛行場 霞目飛行場 青森空港 静岡空港 静浜飛行場 飛行場跡 飛行船 鹿児島空港 鹿屋飛行場